createdAt,value
2023-02-02T00:03:34.360Z,4.57
2023-02-02T00:08:42.328Z,3.35
2023-02-02T00:13:54.805Z,3.63
2023-02-02T01:45:50.729Z,4.25
2023-02-02T02:29:50.176Z,3.25
2023-02-02T06:57:14.262Z,3.22
2023-02-02T07:02:57.717Z,2.65
2023-02-02T07:08:22.617Z,2.83
2023-02-02T07:20:07.878Z,3.38
2023-02-02T07:25:47.475Z,3.47
2023-02-02T07:32:12.442Z,1.95
2023-02-02T07:37:30.005Z,2.58
2023-02-02T07:43:03.462Z,3.00
2023-02-02T07:48:30.984Z,4.45
2023-02-02T07:53:36.764Z,3.17
2023-02-02T07:58:54.819Z,2.40
2023-02-02T08:04:37.829Z,2.53
2023-02-02T08:09:42.995Z,3.78
2023-02-02T08:14:51.166Z,3.63
2023-02-02T08:20:00.429Z,3.38
2023-02-02T08:25:06.444Z,3.55
2023-02-02T08:30:14.430Z,3.80
2023-02-02T08:35:23.264Z,4.75
2023-02-02T08:40:33.862Z,4.10
2023-02-02T08:46:04.471Z,3.75
2023-02-02T08:51:09.756Z,3.70
2023-02-02T08:56:17.701Z,3.92
2023-02-02T09:01:25.267Z,3.20
2023-02-02T09:06:38.018Z,2.78
2023-02-02T09:11:43.988Z,4.00
2023-02-02T09:16:49.722Z,5.88
2023-02-02T09:27:26.286Z,3.53
2023-02-02T09:32:32.141Z,4.60
2023-02-02T09:37:58.113Z,3.97
2023-02-02T09:43:41.012Z,3.25
2023-02-02T10:11:09.855Z,2.80
2023-02-02T10:23:22.599Z,3.17
2023-02-02T10:45:35.669Z,3.88
2023-02-02T11:55:22.578Z,2.10
2023-02-02T12:00:35.204Z,3.60
2023-02-02T12:05:43.164Z,5.78
2023-02-02T12:10:54.288Z,1.85
2023-02-02T12:16:10.517Z,3.53
2023-02-02T12:21:21.775Z,3.10
2023-02-02T12:26:31.170Z,4.80
2023-02-02T12:31:48.150Z,2.35
2023-02-02T12:36:59.448Z,2.28
2023-02-02T12:42:45.897Z,2.38
2023-02-02T12:48:04.401Z,1.95
2023-02-02T12:53:27.991Z,2.33
2023-02-02T12:58:40.239Z,2.10
2023-02-02T13:04:02.444Z,1.60
2023-02-02T13:09:11.729Z,2.40
2023-02-02T13:14:21.356Z,1.92
2023-02-02T13:19:36.510Z,2.80
2023-02-02T13:24:45.643Z,1.77
2023-02-02T13:29:55.925Z,2.00
2023-02-02T13:35:07.472Z,1.95
2023-02-02T13:40:22.726Z,2.50
2023-02-02T13:45:46.107Z,2.58
2023-02-02T13:51:08.478Z,2.42
2023-02-02T13:56:35.135Z,3.60
2023-02-02T14:01:41.628Z,3.55
2023-02-02T14:07:11.598Z,4.40
2023-02-02T14:12:17.642Z,3.60
2023-02-02T14:17:53.072Z,3.28
2023-02-02T14:23:01.709Z,3.65
2023-02-02T14:28:12.610Z,2.55
2023-02-02T14:33:48.298Z,3.08
2023-02-02T14:39:07.748Z,2.83
2023-02-02T14:44:34.647Z,3.45
2023-02-02T14:49:41.842Z,3.53
2023-02-02T14:55:01.159Z,3.53
2023-02-02T15:00:09.766Z,3.72
2023-02-02T15:05:42.824Z,3.97
2023-02-02T15:11:27.016Z,3.58
2023-02-02T15:22:06.625Z,3.92
2023-02-02T15:27:20.537Z,5.20
2023-02-02T15:32:32.747Z,3.78
2023-02-02T15:37:42.619Z,4.22
2023-02-02T15:42:57.006Z,3.97
2023-02-02T15:48:25.603Z,3.97
2023-02-02T15:53:38.417Z,5.57
2023-02-02T15:58:51.743Z,6.43
2023-02-02T16:04:10.186Z,4.70
2023-02-02T16:09:29.534Z,3.38
2023-02-02T16:14:43.366Z,3.30
2023-02-02T16:19:50.139Z,4.05
2023-02-02T16:24:58.000Z,4.10
2023-02-02T16:30:36.994Z,4.70
2023-02-02T16:35:46.597Z,4.88
2023-02-02T16:40:52.975Z,6.53
2023-02-02T16:46:03.190Z,4.68
2023-02-02T16:51:21.039Z,4.32
2023-02-02T16:56:33.066Z,3.95
2023-02-02T17:01:44.701Z,4.70
2023-02-02T17:06:53.463Z,4.93
2023-02-02T17:12:02.238Z,4.47
2023-02-02T17:17:16.088Z,4.28
2023-02-02T17:22:23.601Z,8.75
2023-02-02T17:27:33.873Z,9.27
2023-02-02T17:32:44.200Z,5.22
2023-02-02T17:37:50.105Z,5.05
2023-02-02T17:42:57.390Z,5.82
2023-02-02T17:48:07.328Z,5.88
2023-02-02T17:53:15.675Z,4.45
2023-02-02T17:58:21.650Z,3.70
2023-02-02T18:03:34.010Z,3.75
2023-02-02T18:08:49.451Z,4.43
2023-02-02T18:13:56.783Z,3.92
2023-02-02T18:19:05.655Z,3.63
2023-02-02T18:24:20.390Z,3.50
2023-02-02T18:46:28.175Z,3.78
2023-02-02T18:52:06.632Z,4.65
2023-02-02T18:57:23.307Z,6.53
2023-02-02T19:14:46.467Z,3.65
2023-02-02T19:25:40.681Z,4.18
2023-02-02T19:30:53.692Z,4.75
2023-02-02T19:36:04.821Z,4.35
2023-02-02T19:41:18.235Z,4.88
2023-02-02T19:46:28.707Z,4.88
2023-02-02T19:51:43.887Z,3.58
2023-02-02T19:56:49.789Z,3.25
2023-02-02T20:01:58.743Z,3.63
2023-02-02T20:07:04.852Z,3.95
2023-02-02T20:12:22.594Z,3.78
2023-02-02T20:17:38.795Z,3.42
2023-02-02T21:19:08.603Z,5.07
2023-02-02T21:24:19.074Z,3.72
2023-02-02T21:29:27.015Z,2.67
2023-02-02T21:34:38.166Z,3.80
2023-02-02T21:40:13.199Z,4.80
2023-02-02T21:45:34.327Z,4.45
2023-02-02T21:50:53.196Z,3.38
2023-02-02T21:56:20.180Z,2.53
2023-02-02T22:02:16.410Z,4.55
2023-02-02T22:07:46.982Z,4.60
2023-02-02T22:12:59.161Z,3.78
2023-02-02T22:18:39.657Z,3.58
2023-02-02T22:23:55.457Z,3.90
2023-02-02T22:34:54.985Z,2.83
2023-02-02T22:40:08.169Z,3.80
2023-02-02T22:45:14.782Z,3.13
2023-02-02T22:50:21.887Z,2.85
2023-02-02T22:56:04.182Z,3.38
2023-02-02T23:01:24.773Z,2.20
2023-02-02T23:06:32.813Z,2.30
2023-02-02T23:11:41.412Z,2.30
2023-02-02T23:16:59.927Z,2.00
2023-02-02T23:28:21.696Z,2.28
2023-02-02T23:39:55.121Z,2.00
2023-02-02T23:45:09.890Z,2.22
2023-02-02T23:50:26.992Z,2.05
2023-02-02T23:55:47.486Z,2.83
